sensor_id;sensor_type;location;lat;lon;timestamp;P1;durP1;ratioP1;P2;durP2;ratioP2
75496;SDS011;64074;47.540;19.072;2022-11-24T00:01:04;28.38;;;12.45;;
75496;SDS011;64074;47.540;19.072;2022-11-24T00:04:09;29.05;;;13.35;;
75496;SDS011;64074;47.540;19.072;2022-11-24T00:07:13;29.38;;;13.15;;
75496;SDS011;64074;47.540;19.072;2022-11-24T00:10:20;26.83;;;12.52;;
75496;SDS011;64074;47.540;19.072;2022-11-24T00:13:24;28.10;;;13.40;;
75496;SDS011;64074;47.540;19.072;2022-11-24T00:16:33;28.65;;;13.40;;
75496;SDS011;64074;47.540;19.072;2022-11-24T00:19:37;31.65;;;14.38;;
75496;SDS011;64074;47.540;19.072;2022-11-24T00:22:40;32.22;;;14.85;;
75496;SDS011;64074;47.540;19.072;2022-11-24T00:25:42;31.45;;;14.40;;
75496;SDS011;64074;47.540;19.072;2022-11-24T00:28:45;32.50;;;14.10;;
75496;SDS011;64074;47.540;19.072;2022-11-24T00:31:49;30.55;;;14.57;;
75496;SDS011;64074;47.540;19.072;2022-11-24T00:34:52;34.40;;;16.10;;
75496;SDS011;64074;47.540;19.072;2022-11-24T00:37:55;37.30;;;16.10;;
75496;SDS011;64074;47.540;19.072;2022-11-24T00:40:57;40.25;;;16.90;;
75496;SDS011;64074;47.540;19.072;2022-11-24T00:44:00;34.80;;;14.87;;
75496;SDS011;64074;47.540;19.072;2022-11-24T00:47:02;38.13;;;16.55;;
75496;SDS011;64074;47.540;19.072;2022-11-24T00:50:05;36.45;;;15.77;;
75496;SDS011;64074;47.540;19.072;2022-11-24T00:53:09;35.63;;;15.75;;
75496;SDS011;64074;47.540;19.072;2022-11-24T00:56:11;39.75;;;16.85;;
75496;SDS011;64074;47.540;19.072;2022-11-24T00:59:15;36.33;;;15.27;;
75496;SDS011;64074;47.540;19.072;2022-11-24T01:02:18;39.92;;;16.00;;
75496;SDS011;64074;47.540;19.072;2022-11-24T01:05:21;38.65;;;15.85;;
75496;SDS011;64074;47.540;19.072;2022-11-24T01:08:24;35.03;;;15.80;;
75496;SDS011;64074;47.540;19.072;2022-11-24T01:11:28;40.22;;;16.63;;
75496;SDS011;64074;47.540;19.072;2022-11-24T01:14:56;34.83;;;14.90;;
75496;SDS011;64074;47.540;19.072;2022-11-24T01:17:59;41.88;;;16.88;;
75496;SDS011;64074;47.540;19.072;2022-11-24T01:21:03;43.80;;;16.88;;
75496;SDS011;64074;47.540;19.072;2022-11-24T01:24:11;39.78;;;16.20;;
75496;SDS011;64074;47.540;19.072;2022-11-24T01:27:15;41.70;;;16.42;;
75496;SDS011;64074;47.540;19.072;2022-11-24T01:30:18;41.50;;;17.47;;
75496;SDS011;64074;47.540;19.072;2022-11-24T01:33:24;42.95;;;16.70;;
75496;SDS011;64074;47.540;19.072;2022-11-24T01:36:28;42.65;;;17.45;;
75496;SDS011;64074;47.540;19.072;2022-11-24T01:39:30;47.40;;;18.95;;
75496;SDS011;64074;47.540;19.072;2022-11-24T01:42:47;46.58;;;18.33;;
75496;SDS011;64074;47.540;19.072;2022-11-24T01:45:51;48.33;;;20.30;;
75496;SDS011;64074;47.540;19.072;2022-11-24T01:49:03;48.72;;;19.25;;
75496;SDS011;64074;47.540;19.072;2022-11-24T01:52:14;48.75;;;18.80;;
75496;SDS011;64074;47.540;19.072;2022-11-24T01:55:22;47.03;;;19.50;;
75496;SDS011;64074;47.540;19.072;2022-11-24T01:58:30;51.35;;;21.85;;
75496;SDS011;64074;47.540;19.072;2022-11-24T02:01:38;51.20;;;21.53;;
75496;SDS011;64074;47.540;19.072;2022-11-24T02:04:42;49.67;;;21.70;;
75496;SDS011;64074;47.540;19.072;2022-11-24T02:07:46;53.08;;;22.10;;
75496;SDS011;64074;47.540;19.072;2022-11-24T02:10:51;49.25;;;21.33;;
75496;SDS011;64074;47.540;19.072;2022-11-24T02:13:56;50.45;;;21.05;;
75496;SDS011;64074;47.540;19.072;2022-11-24T02:17:00;58.90;;;23.40;;
75496;SDS011;64074;47.540;19.072;2022-11-24T02:20:04;56.33;;;22.25;;
75496;SDS011;64074;47.540;19.072;2022-11-24T02:23:22;61.50;;;23.90;;
75496;SDS011;64074;47.540;19.072;2022-11-24T02:26:32;58.15;;;23.05;;
75496;SDS011;64074;47.540;19.072;2022-11-24T02:29:49;61.20;;;24.10;;
75496;SDS011;64074;47.540;19.072;2022-11-24T02:32:53;51.60;;;21.80;;
75496;SDS011;64074;47.540;19.072;2022-11-24T02:35:57;53.72;;;23.05;;
75496;SDS011;64074;47.540;19.072;2022-11-24T02:39:01;53.58;;;24.45;;
75496;SDS011;64074;47.540;19.072;2022-11-24T02:42:07;61.53;;;26.25;;
75496;SDS011;64074;47.540;19.072;2022-11-24T02:45:14;55.33;;;23.83;;
75496;SDS011;64074;47.540;19.072;2022-11-24T02:48:18;62.60;;;24.40;;
75496;SDS011;64074;47.540;19.072;2022-11-24T02:51:21;52.35;;;22.45;;
75496;SDS011;64074;47.540;19.072;2022-11-24T02:54:24;67.22;;;27.63;;
75496;SDS011;64074;47.540;19.072;2022-11-24T02:57:26;68.05;;;26.15;;
75496;SDS011;64074;47.540;19.072;2022-11-24T03:00:29;65.18;;;25.02;;
75496;SDS011;64074;47.540;19.072;2022-11-24T03:03:32;67.03;;;26.90;;
75496;SDS011;64074;47.540;19.072;2022-11-24T03:06:35;69.57;;;26.05;;
75496;SDS011;64074;47.540;19.072;2022-11-24T03:09:37;61.00;;;25.60;;
75496;SDS011;64074;47.540;19.072;2022-11-24T03:12:41;70.57;;;27.48;;
75496;SDS011;64074;47.540;19.072;2022-11-24T03:15:44;65.50;;;25.52;;
75496;SDS011;64074;47.540;19.072;2022-11-24T03:18:49;69.17;;;26.67;;
75496;SDS011;64074;47.540;19.072;2022-11-24T03:21:52;72.75;;;27.58;;
75496;SDS011;64074;47.540;19.072;2022-11-24T03:24:55;68.45;;;27.55;;
75496;SDS011;64074;47.540;19.072;2022-11-24T03:27:58;66.95;;;26.75;;
75496;SDS011;64074;47.540;19.072;2022-11-24T03:31:00;65.22;;;25.60;;
75496;SDS011;64074;47.540;19.072;2022-11-24T03:34:04;54.00;;;23.90;;
75496;SDS011;64074;47.540;19.072;2022-11-24T03:37:08;62.83;;;25.50;;
75496;SDS011;64074;47.540;19.072;2022-11-24T03:40:11;65.75;;;26.25;;
75496;SDS011;64074;47.540;19.072;2022-11-24T03:43:14;61.97;;;26.38;;
75496;SDS011;64074;47.540;19.072;2022-11-24T03:46:17;64.40;;;26.33;;
75496;SDS011;64074;47.540;19.072;2022-11-24T03:49:20;61.23;;;24.97;;
75496;SDS011;64074;47.540;19.072;2022-11-24T03:52:23;62.78;;;25.95;;
75496;SDS011;64074;47.540;19.072;2022-11-24T03:55:29;61.10;;;24.83;;
75496;SDS011;64074;47.540;19.072;2022-11-24T03:58:32;64.60;;;26.65;;
75496;SDS011;64074;47.540;19.072;2022-11-24T04:01:34;65.65;;;26.83;;
75496;SDS011;64074;47.540;19.072;2022-11-24T04:04:37;65.07;;;27.13;;
75496;SDS011;64074;47.540;19.072;2022-11-24T04:07:40;70.72;;;28.30;;
75496;SDS011;64074;47.540;19.072;2022-11-24T04:10:43;68.00;;;28.40;;
75496;SDS011;64074;47.540;19.072;2022-11-24T04:13:46;65.47;;;26.63;;
75496;SDS011;64074;47.540;19.072;2022-11-24T04:16:49;70.90;;;28.13;;
75496;SDS011;64074;47.540;19.072;2022-11-24T04:19:52;67.77;;;28.17;;
75496;SDS011;64074;47.540;19.072;2022-11-24T04:22:56;74.10;;;29.48;;
75496;SDS011;64074;47.540;19.072;2022-11-24T04:25:58;73.85;;;29.13;;
75496;SDS011;64074;47.540;19.072;2022-11-24T04:29:01;73.25;;;29.00;;
75496;SDS011;64074;47.540;19.072;2022-11-24T04:32:04;72.88;;;28.50;;
75496;SDS011;64074;47.540;19.072;2022-11-24T04:35:08;79.97;;;31.17;;
75496;SDS011;64074;47.540;19.072;2022-11-24T04:38:12;74.95;;;29.27;;
75496;SDS011;64074;47.540;19.072;2022-11-24T04:41:35;81.45;;;30.40;;
75496;SDS011;64074;47.540;19.072;2022-11-24T04:44:38;75.82;;;30.83;;
75496;SDS011;64074;47.540;19.072;2022-11-24T04:47:40;84.35;;;31.50;;
75496;SDS011;64074;47.540;19.072;2022-11-24T04:50:43;89.83;;;32.33;;
75496;SDS011;64074;47.540;19.072;2022-11-24T04:53:47;83.07;;;30.73;;
75496;SDS011;64074;47.540;19.072;2022-11-24T04:56:50;83.45;;;29.60;;
75496;SDS011;64074;47.540;19.072;2022-11-24T04:59:53;81.97;;;29.90;;
75496;SDS011;64074;47.540;19.072;2022-11-24T05:02:57;84.88;;;30.00;;
75496;SDS011;64074;47.540;19.072;2022-11-24T05:06:01;74.93;;;28.33;;
75496;SDS011;64074;47.540;19.072;2022-11-24T05:09:04;82.82;;;29.63;;
75496;SDS011;64074;47.540;19.072;2022-11-24T05:12:10;78.75;;;29.35;;
75496;SDS011;64074;47.540;19.072;2022-11-24T05:15:12;78.35;;;27.70;;
75496;SDS011;64074;47.540;19.072;2022-11-24T05:18:15;81.45;;;29.10;;
75496;SDS011;64074;47.540;19.072;2022-11-24T05:21:17;88.70;;;28.97;;
75496;SDS011;64074;47.540;19.072;2022-11-24T05:24:21;78.45;;;27.65;;
75496;SDS011;64074;47.540;19.072;2022-11-24T05:27:24;78.85;;;27.23;;
75496;SDS011;64074;47.540;19.072;2022-11-24T05:30:28;76.82;;;27.73;;
75496;SDS011;64074;47.540;19.072;2022-11-24T05:33:32;77.68;;;27.45;;
75496;SDS011;64074;47.540;19.072;2022-11-24T05:36:36;74.57;;;26.93;;
75496;SDS011;64074;47.540;19.072;2022-11-24T05:39:58;69.57;;;26.25;;
75496;SDS011;64074;47.540;19.072;2022-11-24T05:43:01;74.32;;;27.40;;
75496;SDS011;64074;47.540;19.072;2022-11-24T05:46:04;80.45;;;28.73;;
75496;SDS011;64074;47.540;19.072;2022-11-24T05:49:07;75.07;;;27.15;;
75496;SDS011;64074;47.540;19.072;2022-11-24T05:52:09;78.03;;;27.33;;
75496;SDS011;64074;47.540;19.072;2022-11-24T05:55:13;70.45;;;25.80;;
75496;SDS011;64074;47.540;19.072;2022-11-24T05:58:16;64.63;;;24.52;;
75496;SDS011;64074;47.540;19.072;2022-11-24T06:01:19;68.18;;;22.50;;
75496;SDS011;64074;47.540;19.072;2022-11-24T06:04:21;62.88;;;24.30;;
75496;SDS011;64074;47.540;19.072;2022-11-24T06:07:24;59.37;;;22.37;;
75496;SDS011;64074;47.540;19.072;2022-11-24T06:10:26;65.32;;;24.92;;
75496;SDS011;64074;47.540;19.072;2022-11-24T06:13:29;71.15;;;26.20;;
75496;SDS011;64074;47.540;19.072;2022-11-24T06:16:33;60.97;;;23.15;;
75496;SDS011;64074;47.540;19.072;2022-11-24T06:19:36;61.97;;;24.20;;
75496;SDS011;64074;47.540;19.072;2022-11-24T06:22:44;59.60;;;23.30;;
75496;SDS011;64074;47.540;19.072;2022-11-24T06:25:48;61.30;;;22.40;;
75496;SDS011;64074;47.540;19.072;2022-11-24T06:28:53;56.70;;;22.15;;
75496;SDS011;64074;47.540;19.072;2022-11-24T06:31:56;69.22;;;23.73;;
75496;SDS011;64074;47.540;19.072;2022-11-24T06:34:59;58.92;;;21.48;;
75496;SDS011;64074;47.540;19.072;2022-11-24T06:38:03;57.83;;;21.37;;
75496;SDS011;64074;47.540;19.072;2022-11-24T06:41:08;54.28;;;20.77;;
75496;SDS011;64074;47.540;19.072;2022-11-24T06:44:14;63.53;;;22.60;;
75496;SDS011;64074;47.540;19.072;2022-11-24T06:47:17;58.78;;;22.52;;
75496;SDS011;64074;47.540;19.072;2022-11-24T06:50:34;54.03;;;20.65;;
75496;SDS011;64074;47.540;19.072;2022-11-24T06:53:49;57.30;;;20.37;;
75496;SDS011;64074;47.540;19.072;2022-11-24T06:57:21;52.65;;;20.10;;
75496;SDS011;64074;47.540;19.072;2022-11-24T07:00:28;53.67;;;20.88;;
75496;SDS011;64074;47.540;19.072;2022-11-24T07:03:40;52.10;;;18.60;;
75496;SDS011;64074;47.540;19.072;2022-11-24T07:06:43;54.97;;;21.05;;
75496;SDS011;64074;47.540;19.072;2022-11-24T07:09:47;58.77;;;21.03;;
75496;SDS011;64074;47.540;19.072;2022-11-24T07:12:50;56.08;;;21.42;;
75496;SDS011;64074;47.540;19.072;2022-11-24T07:15:54;55.50;;;20.60;;
75496;SDS011;64074;47.540;19.072;2022-11-24T07:18:57;53.00;;;21.63;;
75496;SDS011;64074;47.540;19.072;2022-11-24T07:22:02;55.25;;;20.75;;
75496;SDS011;64074;47.540;19.072;2022-11-24T07:25:05;53.97;;;21.57;;
75496;SDS011;64074;47.540;19.072;2022-11-24T07:28:10;54.17;;;19.75;;
75496;SDS011;64074;47.540;19.072;2022-11-24T07:41:37;49.60;;;19.23;;
75496;SDS011;64074;47.540;19.072;2022-11-24T07:44:55;54.07;;;19.30;;
75496;SDS011;64074;47.540;19.072;2022-11-24T07:48:03;51.72;;;19.73;;
75496;SDS011;64074;47.540;19.072;2022-11-24T08:01:14;49.22;;;19.08;;
75496;SDS011;64074;47.540;19.072;2022-11-24T08:04:39;46.30;;;17.33;;
75496;SDS011;64074;47.540;19.072;2022-11-24T08:07:44;51.55;;;19.67;;
75496;SDS011;64074;47.540;19.072;2022-11-24T08:10:46;51.53;;;19.45;;
75496;SDS011;64074;47.540;19.072;2022-11-24T08:13:49;57.20;;;21.92;;
75496;SDS011;64074;47.540;19.072;2022-11-24T08:16:52;54.80;;;20.33;;
75496;SDS011;64074;47.540;19.072;2022-11-24T08:19:56;54.47;;;19.87;;
75496;SDS011;64074;47.540;19.072;2022-11-24T08:23:00;53.20;;;20.70;;
75496;SDS011;64074;47.540;19.072;2022-11-24T08:26:16;54.80;;;19.80;;
75496;SDS011;64074;47.540;19.072;2022-11-24T08:29:27;55.55;;;22.33;;
75496;SDS011;64074;47.540;19.072;2022-11-24T08:32:31;56.40;;;20.67;;
75496;SDS011;64074;47.540;19.072;2022-11-24T08:39:12;52.10;;;19.63;;
75496;SDS011;64074;47.540;19.072;2022-11-24T08:42:16;59.47;;;22.75;;
75496;SDS011;64074;47.540;19.072;2022-11-24T08:45:20;59.38;;;22.05;;
75496;SDS011;64074;47.540;19.072;2022-11-24T08:48:31;55.35;;;21.25;;
75496;SDS011;64074;47.540;19.072;2022-11-24T08:53:11;53.23;;;20.10;;
75496;SDS011;64074;47.540;19.072;2022-11-24T08:56:16;54.90;;;20.23;;
75496;SDS011;64074;47.540;19.072;2022-11-24T09:04:00;54.22;;;20.38;;
75496;SDS011;64074;47.540;19.072;2022-11-24T09:07:17;58.08;;;21.35;;
75496;SDS011;64074;47.540;19.072;2022-11-24T09:15:35;55.90;;;20.17;;
75496;SDS011;64074;47.540;19.072;2022-11-24T09:18:58;49.30;;;18.55;;
75496;SDS011;64074;47.540;19.072;2022-11-24T09:28:48;56.25;;;19.63;;
75496;SDS011;64074;47.540;19.072;2022-11-24T09:52:31;45.13;;;18.92;;
75496;SDS011;64074;47.540;19.072;2022-11-24T09:55:51;48.50;;;19.37;;
75496;SDS011;64074;47.540;19.072;2022-11-24T09:59:05;46.55;;;19.35;;
75496;SDS011;64074;47.540;19.072;2022-11-24T10:03:09;46.50;;;19.52;;
75496;SDS011;64074;47.540;19.072;2022-11-24T10:16:38;46.28;;;18.52;;
75496;SDS011;64074;47.540;19.072;2022-11-24T10:19:56;44.22;;;18.10;;
75496;SDS011;64074;47.540;19.072;2022-11-24T10:31:54;46.70;;;17.57;;
75496;SDS011;64074;47.540;19.072;2022-11-24T10:35:14;47.83;;;18.52;;
75496;SDS011;64074;47.540;19.072;2022-11-24T10:44:14;44.92;;;17.02;;
75496;SDS011;64074;47.540;19.072;2022-11-24T10:47:24;62.53;;;19.08;;
75496;SDS011;64074;47.540;19.072;2022-11-24T10:50:31;44.47;;;18.47;;
75496;SDS011;64074;47.540;19.072;2022-11-24T10:53:38;47.20;;;18.17;;
75496;SDS011;64074;47.540;19.072;2022-11-24T10:56:43;43.38;;;18.40;;
75496;SDS011;64074;47.540;19.072;2022-11-24T10:59:48;47.35;;;19.35;;
75496;SDS011;64074;47.540;19.072;2022-11-24T11:03:10;42.08;;;17.75;;
75496;SDS011;64074;47.540;19.072;2022-11-24T11:06:30;40.77;;;17.20;;
75496;SDS011;64074;47.540;19.072;2022-11-24T11:09:34;42.30;;;17.73;;
75496;SDS011;64074;47.540;19.072;2022-11-24T11:12:38;45.22;;;17.52;;
75496;SDS011;64074;47.540;19.072;2022-11-24T11:15:47;36.50;;;16.52;;
75496;SDS011;64074;47.540;19.072;2022-11-24T11:18:51;39.92;;;17.42;;
75496;SDS011;64074;47.540;19.072;2022-11-24T11:21:59;38.60;;;16.70;;
75496;SDS011;64074;47.540;19.072;2022-11-24T11:25:13;40.80;;;17.77;;
75496;SDS011;64074;47.540;19.072;2022-11-24T11:28:24;38.33;;;16.35;;
75496;SDS011;64074;47.540;19.072;2022-11-24T11:31:36;39.40;;;16.85;;
75496;SDS011;64074;47.540;19.072;2022-11-24T11:34:43;33.88;;;15.23;;
75496;SDS011;64074;47.540;19.072;2022-11-24T11:37:48;36.87;;;15.80;;
75496;SDS011;64074;47.540;19.072;2022-11-24T11:40:53;39.40;;;16.25;;
75496;SDS011;64074;47.540;19.072;2022-11-24T11:43:59;36.00;;;15.13;;
75496;SDS011;64074;47.540;19.072;2022-11-24T11:47:25;33.08;;;15.35;;
75496;SDS011;64074;47.540;19.072;2022-11-24T11:50:39;36.20;;;16.05;;
75496;SDS011;64074;47.540;19.072;2022-11-24T11:57:53;31.48;;;13.45;;
75496;SDS011;64074;47.540;19.072;2022-11-24T12:35:31;29.48;;;13.00;;
75496;SDS011;64074;47.540;19.072;2022-11-24T12:51:34;25.83;;;12.32;;
75496;SDS011;64074;47.540;19.072;2022-11-24T12:54:41;26.50;;;12.63;;
75496;SDS011;64074;47.540;19.072;2022-11-24T13:01:48;26.70;;;12.03;;
75496;SDS011;64074;47.540;19.072;2022-11-24T13:05:23;29.48;;;11.73;;
75496;SDS011;64074;47.540;19.072;2022-11-24T13:08:37;25.88;;;12.70;;
75496;SDS011;64074;47.540;19.072;2022-11-24T13:11:41;25.80;;;11.55;;
75496;SDS011;64074;47.540;19.072;2022-11-24T13:14:45;24.20;;;11.60;;
75496;SDS011;64074;47.540;19.072;2022-11-24T13:17:51;25.20;;;12.20;;
75496;SDS011;64074;47.540;19.072;2022-11-24T13:25:03;24.77;;;11.75;;
75496;SDS011;64074;47.540;19.072;2022-11-24T13:35:25;27.43;;;12.20;;
75496;SDS011;64074;47.540;19.072;2022-11-24T13:38:38;23.55;;;11.50;;
75496;SDS011;64074;47.540;19.072;2022-11-24T13:44:50;30.15;;;14.60;;
75496;SDS011;64074;47.540;19.072;2022-11-24T13:47:53;25.05;;;11.48;;
75496;SDS011;64074;47.540;19.072;2022-11-24T13:54:07;30.80;;;11.35;;
75496;SDS011;64074;47.540;19.072;2022-11-24T13:57:34;23.83;;;11.20;;
75496;SDS011;64074;47.540;19.072;2022-11-24T14:08:34;25.47;;;12.20;;
75496;SDS011;64074;47.540;19.072;2022-11-24T14:11:39;27.15;;;11.88;;
75496;SDS011;64074;47.540;19.072;2022-11-24T14:14:44;23.52;;;11.18;;
75496;SDS011;64074;47.540;19.072;2022-11-24T14:17:49;26.30;;;11.30;;
75496;SDS011;64074;47.540;19.072;2022-11-24T14:20:54;24.80;;;11.75;;
75496;SDS011;64074;47.540;19.072;2022-11-24T14:23:59;25.10;;;10.23;;
75496;SDS011;64074;47.540;19.072;2022-11-24T14:27:10;28.70;;;12.00;;
75496;SDS011;64074;47.540;19.072;2022-11-24T14:30:17;25.88;;;11.40;;
75496;SDS011;64074;47.540;19.072;2022-11-24T14:33:22;25.83;;;12.55;;
75496;SDS011;64074;47.540;19.072;2022-11-24T14:36:26;25.70;;;12.23;;
75496;SDS011;64074;47.540;19.072;2022-11-24T14:39:29;27.60;;;12.03;;
75496;SDS011;64074;47.540;19.072;2022-11-24T14:42:46;29.05;;;12.63;;
75496;SDS011;64074;47.540;19.072;2022-11-24T14:45:55;26.80;;;12.43;;
75496;SDS011;64074;47.540;19.072;2022-11-24T14:49:02;26.33;;;12.52;;
75496;SDS011;64074;47.540;19.072;2022-11-24T14:52:13;27.45;;;12.52;;
75496;SDS011;64074;47.540;19.072;2022-11-24T14:55:24;26.87;;;12.17;;
75496;SDS011;64074;47.540;19.072;2022-11-24T14:58:30;28.00;;;12.98;;
75496;SDS011;64074;47.540;19.072;2022-11-24T15:01:41;27.75;;;12.02;;
75496;SDS011;64074;47.540;19.072;2022-11-24T15:04:55;28.85;;;12.82;;
75496;SDS011;64074;47.540;19.072;2022-11-24T15:08:10;30.15;;;13.88;;
75496;SDS011;64074;47.540;19.072;2022-11-24T15:11:16;28.77;;;12.40;;
75496;SDS011;64074;47.540;19.072;2022-11-24T15:14:35;24.38;;;11.98;;
75496;SDS011;64074;47.540;19.072;2022-11-24T15:18:00;50.22;;;22.65;;
75496;SDS011;64074;47.540;19.072;2022-11-24T15:21:04;28.35;;;13.52;;
75496;SDS011;64074;47.540;19.072;2022-11-24T15:24:14;32.58;;;15.82;;
75496;SDS011;64074;47.540;19.072;2022-11-24T15:27:20;25.87;;;12.57;;
75496;SDS011;64074;47.540;19.072;2022-11-24T15:30:23;30.25;;;13.88;;
75496;SDS011;64074;47.540;19.072;2022-11-24T15:33:26;30.40;;;15.18;;
75496;SDS011;64074;47.540;19.072;2022-11-24T15:36:30;25.17;;;11.00;;
75496;SDS011;64074;47.540;19.072;2022-11-24T15:39:33;27.92;;;12.95;;
75496;SDS011;64074;47.540;19.072;2022-11-24T15:42:36;29.73;;;13.50;;
75496;SDS011;64074;47.540;19.072;2022-11-24T15:45:40;35.38;;;17.55;;
75496;SDS011;64074;47.540;19.072;2022-11-24T15:48:43;31.45;;;13.80;;
75496;SDS011;64074;47.540;19.072;2022-11-24T15:51:46;29.38;;;12.65;;
75496;SDS011;64074;47.540;19.072;2022-11-24T15:54:51;28.55;;;13.35;;
75496;SDS011;64074;47.540;19.072;2022-11-24T15:57:57;30.03;;;12.83;;
75496;SDS011;64074;47.540;19.072;2022-11-24T16:01:00;26.60;;;12.82;;
75496;SDS011;64074;47.540;19.072;2022-11-24T16:04:04;28.73;;;13.07;;
75496;SDS011;64074;47.540;19.072;2022-11-24T16:07:10;30.10;;;14.23;;
75496;SDS011;64074;47.540;19.072;2022-11-24T16:10:24;31.20;;;13.00;;
75496;SDS011;64074;47.540;19.072;2022-11-24T16:13:29;29.50;;;12.87;;
75496;SDS011;64074;47.540;19.072;2022-11-24T16:16:32;30.75;;;14.10;;
75496;SDS011;64074;47.540;19.072;2022-11-24T16:19:35;31.70;;;14.20;;
75496;SDS011;64074;47.540;19.072;2022-11-24T16:22:43;28.35;;;12.48;;
75496;SDS011;64074;47.540;19.072;2022-11-24T16:25:46;33.20;;;14.32;;
75496;SDS011;64074;47.540;19.072;2022-11-24T16:28:49;26.10;;;12.13;;
75496;SDS011;64074;47.540;19.072;2022-11-24T16:31:53;29.92;;;13.90;;
75496;SDS011;64074;47.540;19.072;2022-11-24T16:34:56;32.35;;;13.80;;
75496;SDS011;64074;47.540;19.072;2022-11-24T16:37:59;32.13;;;13.93;;
75496;SDS011;64074;47.540;19.072;2022-11-24T16:41:02;30.10;;;12.48;;
75496;SDS011;64074;47.540;19.072;2022-11-24T16:44:05;32.30;;;14.60;;
75496;SDS011;64074;47.540;19.072;2022-11-24T16:47:08;31.02;;;13.93;;
75496;SDS011;64074;47.540;19.072;2022-11-24T16:50:13;32.95;;;14.25;;
75496;SDS011;64074;47.540;19.072;2022-11-24T16:53:19;34.35;;;14.73;;
75496;SDS011;64074;47.540;19.072;2022-11-24T16:56:22;31.85;;;14.93;;
75496;SDS011;64074;47.540;19.072;2022-11-24T16:59:25;30.70;;;11.87;;
75496;SDS011;64074;47.540;19.072;2022-11-24T17:02:28;30.08;;;13.57;;
75496;SDS011;64074;47.540;19.072;2022-11-24T17:05:31;30.35;;;13.80;;
75496;SDS011;64074;47.540;19.072;2022-11-24T17:08:35;31.58;;;15.02;;
75496;SDS011;64074;47.540;19.072;2022-11-24T17:11:39;32.13;;;12.98;;
75496;SDS011;64074;47.540;19.072;2022-11-24T17:14:42;27.70;;;13.27;;
75496;SDS011;64074;47.540;19.072;2022-11-24T17:18:04;35.25;;;13.23;;
75496;SDS011;64074;47.540;19.072;2022-11-24T17:21:27;35.28;;;13.75;;
75496;SDS011;64074;47.540;19.072;2022-11-24T17:24:30;36.47;;;15.13;;
75496;SDS011;64074;47.540;19.072;2022-11-24T17:27:33;37.00;;;16.05;;
75496;SDS011;64074;47.540;19.072;2022-11-24T17:30:36;31.00;;;12.67;;
75496;SDS011;64074;47.540;19.072;2022-11-24T17:33:39;33.10;;;14.68;;
75496;SDS011;64074;47.540;19.072;2022-11-24T17:36:42;35.83;;;14.68;;
75496;SDS011;64074;47.540;19.072;2022-11-24T17:39:47;37.40;;;15.77;;
75496;SDS011;64074;47.540;19.072;2022-11-24T17:43:11;32.65;;;13.55;;
75496;SDS011;64074;47.540;19.072;2022-11-24T17:46:18;34.83;;;13.87;;
75496;SDS011;64074;47.540;19.072;2022-11-24T17:49:21;33.45;;;13.73;;
75496;SDS011;64074;47.540;19.072;2022-11-24T17:52:24;31.35;;;13.48;;
75496;SDS011;64074;47.540;19.072;2022-11-24T17:55:27;35.30;;;14.30;;
75496;SDS011;64074;47.540;19.072;2022-11-24T17:58:32;32.50;;;13.43;;
75496;SDS011;64074;47.540;19.072;2022-11-24T18:01:43;30.73;;;13.17;;
75496;SDS011;64074;47.540;19.072;2022-11-24T18:04:47;28.75;;;13.13;;
75496;SDS011;64074;47.540;19.072;2022-11-24T18:07:50;33.53;;;14.50;;
75496;SDS011;64074;47.540;19.072;2022-11-24T18:10:52;30.33;;;13.95;;
75496;SDS011;64074;47.540;19.072;2022-11-24T18:13:56;32.95;;;14.05;;
75496;SDS011;64074;47.540;19.072;2022-11-24T18:17:02;29.83;;;13.30;;
75496;SDS011;64074;47.540;19.072;2022-11-24T18:20:06;28.35;;;12.88;;
75496;SDS011;64074;47.540;19.072;2022-11-24T18:23:09;32.10;;;13.98;;
75496;SDS011;64074;47.540;19.072;2022-11-24T18:26:13;31.10;;;14.00;;
75496;SDS011;64074;47.540;19.072;2022-11-24T18:29:18;33.42;;;12.82;;
75496;SDS011;64074;47.540;19.072;2022-11-24T18:32:20;31.30;;;13.73;;
75496;SDS011;64074;47.540;19.072;2022-11-24T18:35:23;33.50;;;14.35;;
75496;SDS011;64074;47.540;19.072;2022-11-24T18:38:26;33.95;;;13.70;;
75496;SDS011;64074;47.540;19.072;2022-11-24T18:41:30;32.42;;;14.50;;
75496;SDS011;64074;47.540;19.072;2022-11-24T18:44:34;32.60;;;14.07;;
75496;SDS011;64074;47.540;19.072;2022-11-24T18:47:37;32.83;;;13.90;;
75496;SDS011;64074;47.540;19.072;2022-11-24T18:50:43;31.73;;;14.65;;
75496;SDS011;64074;47.540;19.072;2022-11-24T18:53:45;37.90;;;15.85;;
75496;SDS011;64074;47.540;19.072;2022-11-24T18:56:54;33.70;;;14.77;;
75496;SDS011;64074;47.540;19.072;2022-11-24T19:00:05;33.58;;;14.35;;
75496;SDS011;64074;47.540;19.072;2022-11-24T19:03:09;36.87;;;15.73;;
75496;SDS011;64074;47.540;19.072;2022-11-24T19:06:16;33.40;;;15.38;;
75496;SDS011;64074;47.540;19.072;2022-11-24T19:09:21;36.60;;;14.25;;
75496;SDS011;64074;47.540;19.072;2022-11-24T19:12:25;37.25;;;15.45;;
75496;SDS011;64074;47.540;19.072;2022-11-24T19:15:30;34.08;;;14.88;;
75496;SDS011;64074;47.540;19.072;2022-11-24T19:18:35;35.10;;;13.97;;
75496;SDS011;64074;47.540;19.072;2022-11-24T19:21:41;34.45;;;14.30;;
75496;SDS011;64074;47.540;19.072;2022-11-24T19:24:44;37.25;;;14.85;;
75496;SDS011;64074;47.540;19.072;2022-11-24T19:27:47;37.28;;;15.40;;
75496;SDS011;64074;47.540;19.072;2022-11-24T19:30:50;36.53;;;15.70;;
75496;SDS011;64074;47.540;19.072;2022-11-24T19:33:54;35.23;;;15.53;;
75496;SDS011;64074;47.540;19.072;2022-11-24T19:36:59;36.83;;;15.38;;
75496;SDS011;64074;47.540;19.072;2022-11-24T19:40:02;34.35;;;15.77;;
75496;SDS011;64074;47.540;19.072;2022-11-24T19:43:07;39.35;;;15.63;;
75496;SDS011;64074;47.540;19.072;2022-11-24T19:46:11;37.22;;;15.52;;
75496;SDS011;64074;47.540;19.072;2022-11-24T19:49:15;38.10;;;16.07;;
75496;SDS011;64074;47.540;19.072;2022-11-24T19:52:18;33.17;;;14.85;;
75496;SDS011;64074;47.540;19.072;2022-11-24T19:55:22;38.80;;;17.10;;
75496;SDS011;64074;47.540;19.072;2022-11-24T19:58:25;34.80;;;15.38;;
75496;SDS011;64074;47.540;19.072;2022-11-24T20:01:33;37.05;;;16.13;;
75496;SDS011;64074;47.540;19.072;2022-11-24T20:04:42;37.27;;;16.83;;
75496;SDS011;64074;47.540;19.072;2022-11-24T20:07:44;37.90;;;17.55;;
75496;SDS011;64074;47.540;19.072;2022-11-24T20:10:48;37.80;;;16.33;;
75496;SDS011;64074;47.540;19.072;2022-11-24T20:13:52;37.45;;;15.77;;
75496;SDS011;64074;47.540;19.072;2022-11-24T20:16:55;41.70;;;16.55;;
75496;SDS011;64074;47.540;19.072;2022-11-24T20:19:59;37.00;;;16.23;;
75496;SDS011;64074;47.540;19.072;2022-11-24T20:23:01;37.42;;;15.93;;
75496;SDS011;64074;47.540;19.072;2022-11-24T20:26:05;38.72;;;16.90;;
75496;SDS011;64074;47.540;19.072;2022-11-24T20:29:21;37.97;;;15.27;;
75496;SDS011;64074;47.540;19.072;2022-11-24T20:32:24;37.42;;;16.20;;
75496;SDS011;64074;47.540;19.072;2022-11-24T20:35:29;35.83;;;15.43;;
75496;SDS011;64074;47.540;19.072;2022-11-24T20:38:32;36.08;;;15.18;;
75496;SDS011;64074;47.540;19.072;2022-11-24T20:41:36;36.20;;;15.85;;